aviador You're here:

KTVF Decoded Metar

THIEF RIVER in MN, USA
Report Time2018-06-24 21:56:00
UTC Time2018-06-24 22:48:37
Flight Rules vfr VFR
Wind090° at 13 kt
W.Decomp.*RWY 13: 9.2 kt HW 9.2 kt LCW
RWY 03: 7.5 kt HW 10.6 kt RCW
W.Rank090° ranks 28
Current wind is above 090° avg. (8.3)
Visibility9999 m
Phenomena:N/A
Clouds:N/A
Expected CloudBase > 3,200 ft AGL from Temp-Dew spread
CeilingNone
Temp25°C (ISA +12)
Dew Point17°C (61% RH)
AAT22.7°C
QNH1016 hPa
Density Alt2,687 ft
Elevation1,115 ft
Report Wrong Elevation
Raw Report
KTVF 242156Z AUTO 09013KT 10SM CLR 25/17 A2999 RMK AO2 SLP154
T02500167=

Extra information for KTVF:More info

Metar Taf Metar & Taf Last 4 Metars F.Rules Stats Wind Profile Meteogram Temp Stats Airport Information Weather charts Add Link Nearby VenuesMetar ALERT Operation Metar Decoded Social comments

AIRNAV info for KTVF